sensor_id;sensor_type;location;lat;lon;timestamp;P1;durP1;ratioP1;P2;durP2;ratioP2
55483;SDS011;41345;51.704;5.146;2022-12-13T00:00:25;37.72;;;19.30;;
55483;SDS011;41345;51.704;5.146;2022-12-13T00:05:26;40.53;;;18.17;;
55483;SDS011;41345;51.704;5.146;2022-12-13T00:10:26;38.73;;;19.93;;
55483;SDS011;41345;51.704;5.146;2022-12-13T00:15:27;37.78;;;18.92;;
55483;SDS011;41345;51.704;5.146;2022-12-13T00:20:27;40.00;;;19.83;;
55483;SDS011;41345;51.704;5.146;2022-12-13T00:25:27;39.40;;;18.38;;
55483;SDS011;41345;51.704;5.146;2022-12-13T00:30:28;46.55;;;19.48;;
55483;SDS011;41345;51.704;5.146;2022-12-13T00:35:32;42.20;;;18.08;;
55483;SDS011;41345;51.704;5.146;2022-12-13T00:40:32;35.85;;;18.50;;
55483;SDS011;41345;51.704;5.146;2022-12-13T00:45:32;39.97;;;19.83;;
55483;SDS011;41345;51.704;5.146;2022-12-13T00:50:32;42.42;;;18.90;;
55483;SDS011;41345;51.704;5.146;2022-12-13T00:55:33;39.40;;;18.90;;
55483;SDS011;41345;51.704;5.146;2022-12-13T01:00:33;48.47;;;19.80;;
55483;SDS011;41345;51.704;5.146;2022-12-13T01:05:34;43.65;;;19.27;;
55483;SDS011;41345;51.704;5.146;2022-12-13T01:10:34;42.33;;;19.27;;
55483;SDS011;41345;51.704;5.146;2022-12-13T01:15:38;38.35;;;18.92;;
55483;SDS011;41345;51.704;5.146;2022-12-13T01:20:38;48.37;;;20.87;;
55483;SDS011;41345;51.704;5.146;2022-12-13T01:25:39;40.35;;;19.73;;
55483;SDS011;41345;51.704;5.146;2022-12-13T01:30:39;42.40;;;19.48;;
55483;SDS011;41345;51.704;5.146;2022-12-13T01:35:40;38.05;;;19.92;;
55483;SDS011;41345;51.704;5.146;2022-12-13T01:40:47;44.45;;;20.95;;
55483;SDS011;41345;51.704;5.146;2022-12-13T01:45:48;45.38;;;19.50;;
55483;SDS011;41345;51.704;5.146;2022-12-13T01:50:49;38.22;;;19.63;;
55483;SDS011;41345;51.704;5.146;2022-12-13T01:55:52;44.05;;;19.83;;
55483;SDS011;41345;51.704;5.146;2022-12-13T02:00:53;43.45;;;18.85;;
55483;SDS011;41345;51.704;5.146;2022-12-13T02:06:00;38.08;;;19.52;;
55483;SDS011;41345;51.704;5.146;2022-12-13T02:11:03;35.60;;;17.65;;
55483;SDS011;41345;51.704;5.146;2022-12-13T02:31:09;39.63;;;18.42;;
55483;SDS011;41345;51.704;5.146;2022-12-13T02:41:16;42.83;;;20.80;;
55483;SDS011;41345;51.704;5.146;2022-12-13T02:46:19;48.90;;;21.48;;
55483;SDS011;41345;51.704;5.146;2022-12-13T02:51:20;42.20;;;20.75;;
55483;SDS011;41345;51.704;5.146;2022-12-13T02:56:21;42.70;;;18.92;;
55483;SDS011;41345;51.704;5.146;2022-12-13T03:01:40;42.30;;;19.25;;
55483;SDS011;41345;51.704;5.146;2022-12-13T03:17:04;44.97;;;21.52;;
55483;SDS011;41345;51.704;5.146;2022-12-13T03:22:05;39.78;;;18.73;;
55483;SDS011;41345;51.704;5.146;2022-12-13T03:27:06;38.83;;;19.73;;
55483;SDS011;41345;51.704;5.146;2022-12-13T03:32:06;46.45;;;19.60;;
55483;SDS011;41345;51.704;5.146;2022-12-13T03:37:06;46.28;;;20.90;;
55483;SDS011;41345;51.704;5.146;2022-12-13T03:42:07;45.90;;;21.90;;
55483;SDS011;41345;51.704;5.146;2022-12-13T03:47:07;44.78;;;21.02;;
55483;SDS011;41345;51.704;5.146;2022-12-13T03:52:07;45.45;;;20.77;;
55483;SDS011;41345;51.704;5.146;2022-12-13T03:57:08;48.67;;;20.40;;
55483;SDS011;41345;51.704;5.146;2022-12-13T04:02:08;52.22;;;21.92;;
55483;SDS011;41345;51.704;5.146;2022-12-13T04:07:08;48.13;;;23.15;;
55483;SDS011;41345;51.704;5.146;2022-12-13T04:12:09;54.00;;;22.75;;
55483;SDS011;41345;51.704;5.146;2022-12-13T04:17:28;50.88;;;19.58;;
55483;SDS011;41345;51.704;5.146;2022-12-13T04:22:28;45.22;;;21.85;;
55483;SDS011;41345;51.704;5.146;2022-12-13T04:27:28;48.58;;;20.08;;
55483;SDS011;41345;51.704;5.146;2022-12-13T04:32:29;43.58;;;21.17;;
55483;SDS011;41345;51.704;5.146;2022-12-13T04:37:29;41.88;;;18.98;;
55483;SDS011;41345;51.704;5.146;2022-12-13T04:42:29;41.17;;;19.80;;
55483;SDS011;41345;51.704;5.146;2022-12-13T04:47:30;46.83;;;21.15;;
55483;SDS011;41345;51.704;5.146;2022-12-13T04:52:30;49.30;;;20.40;;
55483;SDS011;41345;51.704;5.146;2022-12-13T04:57:31;44.63;;;19.60;;
55483;SDS011;41345;51.704;5.146;2022-12-13T05:02:31;42.53;;;19.75;;
55483;SDS011;41345;51.704;5.146;2022-12-13T05:07:31;42.78;;;19.42;;
55483;SDS011;41345;51.704;5.146;2022-12-13T05:12:32;44.47;;;20.40;;
55483;SDS011;41345;51.704;5.146;2022-12-13T05:17:32;46.20;;;19.67;;
55483;SDS011;41345;51.704;5.146;2022-12-13T05:22:33;49.72;;;20.23;;
55483;SDS011;41345;51.704;5.146;2022-12-13T05:27:33;44.17;;;20.58;;
55483;SDS011;41345;51.704;5.146;2022-12-13T05:32:34;51.47;;;22.65;;
55483;SDS011;41345;51.704;5.146;2022-12-13T05:37:37;47.60;;;20.52;;
55483;SDS011;41345;51.704;5.146;2022-12-13T05:42:37;43.97;;;19.48;;
55483;SDS011;41345;51.704;5.146;2022-12-13T05:47:38;45.88;;;19.70;;
55483;SDS011;41345;51.704;5.146;2022-12-13T05:52:39;39.25;;;19.05;;
55483;SDS011;41345;51.704;5.146;2022-12-13T05:57:39;42.40;;;18.92;;
55483;SDS011;41345;51.704;5.146;2022-12-13T06:02:40;42.63;;;18.55;;
55483;SDS011;41345;51.704;5.146;2022-12-13T06:07:40;44.42;;;18.90;;
55483;SDS011;41345;51.704;5.146;2022-12-13T06:12:40;48.08;;;18.73;;
55483;SDS011;41345;51.704;5.146;2022-12-13T06:17:41;39.55;;;19.30;;
55483;SDS011;41345;51.704;5.146;2022-12-13T06:22:41;47.58;;;20.05;;
55483;SDS011;41345;51.704;5.146;2022-12-13T06:27:41;44.38;;;18.13;;
55483;SDS011;41345;51.704;5.146;2022-12-13T06:32:41;45.30;;;18.65;;
55483;SDS011;41345;51.704;5.146;2022-12-13T06:37:42;40.88;;;18.75;;
55483;SDS011;41345;51.704;5.146;2022-12-13T06:42:42;41.45;;;18.45;;
55483;SDS011;41345;51.704;5.146;2022-12-13T06:47:43;51.63;;;20.05;;
55483;SDS011;41345;51.704;5.146;2022-12-13T06:52:46;49.33;;;22.10;;
55483;SDS011;41345;51.704;5.146;2022-12-13T06:57:47;50.15;;;21.63;;
55483;SDS011;41345;51.704;5.146;2022-12-13T07:02:51;51.17;;;21.60;;
55483;SDS011;41345;51.704;5.146;2022-12-13T07:07:52;46.88;;;20.38;;
55483;SDS011;41345;51.704;5.146;2022-12-13T07:12:53;50.53;;;20.08;;
55483;SDS011;41345;51.704;5.146;2022-12-13T07:17:53;48.00;;;21.40;;
55483;SDS011;41345;51.704;5.146;2022-12-13T07:22:54;55.83;;;23.35;;
55483;SDS011;41345;51.704;5.146;2022-12-13T07:27:56;57.00;;;22.75;;
55483;SDS011;41345;51.704;5.146;2022-12-13T07:32:56;51.85;;;21.75;;
55483;SDS011;41345;51.704;5.146;2022-12-13T07:37:57;51.70;;;22.40;;
55483;SDS011;41345;51.704;5.146;2022-12-13T07:42:57;54.17;;;23.65;;
55483;SDS011;41345;51.704;5.146;2022-12-13T07:47:58;59.75;;;24.27;;
55483;SDS011;41345;51.704;5.146;2022-12-13T07:53:02;54.05;;;24.58;;
55483;SDS011;41345;51.704;5.146;2022-12-13T07:58:09;53.75;;;25.23;;
55483;SDS011;41345;51.704;5.146;2022-12-13T08:03:09;66.40;;;26.05;;
55483;SDS011;41345;51.704;5.146;2022-12-13T08:08:10;50.87;;;24.00;;
55483;SDS011;41345;51.704;5.146;2022-12-13T08:13:10;61.60;;;24.85;;
55483;SDS011;41345;51.704;5.146;2022-12-13T08:18:10;68.03;;;26.13;;
55483;SDS011;41345;51.704;5.146;2022-12-13T08:23:11;65.50;;;26.88;;
55483;SDS011;41345;51.704;5.146;2022-12-13T08:28:11;65.70;;;25.75;;
55483;SDS011;41345;51.704;5.146;2022-12-13T08:33:11;60.58;;;25.88;;
55483;SDS011;41345;51.704;5.146;2022-12-13T08:38:12;66.38;;;26.95;;
55483;SDS011;41345;51.704;5.146;2022-12-13T08:43:13;67.60;;;27.33;;
55483;SDS011;41345;51.704;5.146;2022-12-13T08:48:14;72.68;;;28.23;;
55483;SDS011;41345;51.704;5.146;2022-12-13T08:53:14;66.15;;;26.83;;
55483;SDS011;41345;51.704;5.146;2022-12-13T08:58:14;72.35;;;31.13;;
55483;SDS011;41345;51.704;5.146;2022-12-13T09:03:15;68.65;;;29.90;;
55483;SDS011;41345;51.704;5.146;2022-12-13T09:08:16;78.82;;;30.73;;
55483;SDS011;41345;51.704;5.146;2022-12-13T09:13:16;67.65;;;30.17;;
55483;SDS011;41345;51.704;5.146;2022-12-13T09:18:16;72.50;;;31.33;;
55483;SDS011;41345;51.704;5.146;2022-12-13T09:23:16;78.03;;;33.58;;
55483;SDS011;41345;51.704;5.146;2022-12-13T09:28:17;73.72;;;30.98;;
55483;SDS011;41345;51.704;5.146;2022-12-13T09:33:17;73.47;;;29.63;;
55483;SDS011;41345;51.704;5.146;2022-12-13T09:38:18;76.38;;;31.90;;
55483;SDS011;41345;51.704;5.146;2022-12-13T09:43:20;60.30;;;29.90;;
55483;SDS011;41345;51.704;5.146;2022-12-13T09:48:23;63.75;;;30.20;;
55483;SDS011;41345;51.704;5.146;2022-12-13T09:53:23;72.57;;;29.58;;
55483;SDS011;41345;51.704;5.146;2022-12-13T09:58:27;66.25;;;29.02;;
55483;SDS011;41345;51.704;5.146;2022-12-13T10:03:29;62.95;;;30.30;;
55483;SDS011;41345;51.704;5.146;2022-12-13T10:18:56;55.45;;;27.48;;
55483;SDS011;41345;51.704;5.146;2022-12-13T10:29:11;54.92;;;24.63;;
55483;SDS011;41345;51.704;5.146;2022-12-13T10:34:16;48.97;;;24.15;;
55483;SDS011;41345;51.704;5.146;2022-12-13T10:39:41;44.47;;;22.35;;
55483;SDS011;41345;51.704;5.146;2022-12-13T10:44:40;45.47;;;23.80;;
55483;SDS011;41345;51.704;5.146;2022-12-13T10:54:47;51.75;;;24.58;;
55483;SDS011;41345;51.704;5.146;2022-12-13T10:59:49;48.42;;;22.67;;
55483;SDS011;41345;51.704;5.146;2022-12-13T11:04:49;47.50;;;21.85;;
55483;SDS011;41345;51.704;5.146;2022-12-13T11:09:50;43.90;;;21.17;;
55483;SDS011;41345;51.704;5.146;2022-12-13T11:20:05;47.92;;;22.13;;
55483;SDS011;41345;51.704;5.146;2022-12-13T11:25:48;41.42;;;21.52;;
55483;SDS011;41345;51.704;5.146;2022-12-13T11:30:32;45.35;;;22.90;;
55483;SDS011;41345;51.704;5.146;2022-12-13T11:35:48;49.30;;;22.60;;
55483;SDS011;41345;51.704;5.146;2022-12-13T11:40:53;44.67;;;23.27;;
55483;SDS011;41345;51.704;5.146;2022-12-13T11:45:58;39.40;;;20.77;;
55483;SDS011;41345;51.704;5.146;2022-12-13T11:50:59;41.92;;;20.92;;
55483;SDS011;41345;51.704;5.146;2022-12-13T11:56:04;41.77;;;21.67;;
55483;SDS011;41345;51.704;5.146;2022-12-13T12:01:09;39.55;;;20.90;;
55483;SDS011;41345;51.704;5.146;2022-12-13T12:06:17;39.05;;;21.00;;
55483;SDS011;41345;51.704;5.146;2022-12-13T12:11:21;38.55;;;20.00;;
55483;SDS011;41345;51.704;5.146;2022-12-13T12:21:36;45.58;;;22.75;;
55483;SDS011;41345;51.704;5.146;2022-12-13T12:26:52;41.40;;;20.88;;
55483;SDS011;41345;51.704;5.146;2022-12-13T13:07:55;42.13;;;19.90;;
55483;SDS011;41345;51.704;5.146;2022-12-13T13:12:57;41.70;;;20.37;;
55483;SDS011;41345;51.704;5.146;2022-12-13T13:17:58;36.03;;;19.73;;
55483;SDS011;41345;51.704;5.146;2022-12-13T13:22:59;38.67;;;20.08;;
55483;SDS011;41345;51.704;5.146;2022-12-13T13:28:15;37.63;;;18.83;;
55483;SDS011;41345;51.704;5.146;2022-12-13T13:38:48;39.42;;;19.73;;
55483;SDS011;41345;51.704;5.146;2022-12-13T13:43:48;41.10;;;19.98;;
55483;SDS011;41345;51.704;5.146;2022-12-13T13:48:54;38.78;;;19.92;;
55483;SDS011;41345;51.704;5.146;2022-12-13T13:54:04;39.50;;;19.73;;
55483;SDS011;41345;51.704;5.146;2022-12-13T14:30:45;40.20;;;19.55;;
55483;SDS011;41345;51.704;5.146;2022-12-13T14:35:49;38.22;;;19.35;;
55483;SDS011;41345;51.704;5.146;2022-12-13T14:40:52;36.95;;;19.48;;
55483;SDS011;41345;51.704;5.146;2022-12-13T14:45:54;40.28;;;19.52;;
55483;SDS011;41345;51.704;5.146;2022-12-13T14:50:55;40.88;;;19.70;;
55483;SDS011;41345;51.704;5.146;2022-12-13T14:56:12;40.03;;;19.52;;
55483;SDS011;41345;51.704;5.146;2022-12-13T15:01:32;39.45;;;20.70;;
55483;SDS011;41345;51.704;5.146;2022-12-13T15:06:33;37.15;;;19.08;;
55483;SDS011;41345;51.704;5.146;2022-12-13T15:11:34;40.20;;;21.40;;
55483;SDS011;41345;51.704;5.146;2022-12-13T15:16:35;48.78;;;22.75;;
55483;SDS011;41345;51.704;5.146;2022-12-13T15:21:35;44.33;;;22.50;;
55483;SDS011;41345;51.704;5.146;2022-12-13T15:26:36;47.30;;;23.02;;
55483;SDS011;41345;51.704;5.146;2022-12-13T15:31:37;44.00;;;22.83;;
55483;SDS011;41345;51.704;5.146;2022-12-13T15:36:37;49.60;;;24.40;;
55483;SDS011;41345;51.704;5.146;2022-12-13T15:41:41;47.90;;;23.73;;
55483;SDS011;41345;51.704;5.146;2022-12-13T15:46:42;44.43;;;23.23;;
55483;SDS011;41345;51.704;5.146;2022-12-13T15:51:57;45.08;;;22.25;;
55483;SDS011;41345;51.704;5.146;2022-12-13T15:57:00;49.15;;;23.38;;
55483;SDS011;41345;51.704;5.146;2022-12-13T16:02:01;48.05;;;23.67;;
55483;SDS011;41345;51.704;5.146;2022-12-13T16:07:02;48.33;;;22.88;;
55483;SDS011;41345;51.704;5.146;2022-12-13T16:12:03;42.03;;;21.30;;
55483;SDS011;41345;51.704;5.146;2022-12-13T16:17:15;45.88;;;21.67;;
55483;SDS011;41345;51.704;5.146;2022-12-13T16:22:17;44.28;;;21.38;;
55483;SDS011;41345;51.704;5.146;2022-12-13T16:27:20;45.53;;;22.25;;
55483;SDS011;41345;51.704;5.146;2022-12-13T16:32:20;47.58;;;21.63;;
55483;SDS011;41345;51.704;5.146;2022-12-13T16:37:21;42.75;;;21.05;;
55483;SDS011;41345;51.704;5.146;2022-12-13T16:42:26;48.10;;;23.35;;
55483;SDS011;41345;51.704;5.146;2022-12-13T16:47:26;42.15;;;20.60;;
55483;SDS011;41345;51.704;5.146;2022-12-13T16:52:28;40.47;;;20.15;;
55483;SDS011;41345;51.704;5.146;2022-12-13T16:57:28;42.88;;;19.75;;
55483;SDS011;41345;51.704;5.146;2022-12-13T17:02:29;41.15;;;20.33;;
55483;SDS011;41345;51.704;5.146;2022-12-13T17:07:29;40.28;;;19.90;;
55483;SDS011;41345;51.704;5.146;2022-12-13T17:12:29;42.53;;;21.33;;
55483;SDS011;41345;51.704;5.146;2022-12-13T17:17:30;37.80;;;18.52;;
55483;SDS011;41345;51.704;5.146;2022-12-13T17:22:30;38.00;;;18.27;;
55483;SDS011;41345;51.704;5.146;2022-12-13T17:27:31;39.05;;;19.30;;
55483;SDS011;41345;51.704;5.146;2022-12-13T17:32:31;39.75;;;20.13;;
55483;SDS011;41345;51.704;5.146;2022-12-13T17:37:31;40.33;;;20.05;;
55483;SDS011;41345;51.704;5.146;2022-12-13T17:42:33;37.08;;;18.83;;
55483;SDS011;41345;51.704;5.146;2022-12-13T17:47:33;44.53;;;19.20;;
55483;SDS011;41345;51.704;5.146;2022-12-13T17:52:34;38.83;;;18.27;;
55483;SDS011;41345;51.704;5.146;2022-12-13T17:57:35;39.13;;;20.90;;
55483;SDS011;41345;51.704;5.146;2022-12-13T18:02:37;39.20;;;18.48;;
55483;SDS011;41345;51.704;5.146;2022-12-13T18:07:37;40.80;;;20.02;;
55483;SDS011;41345;51.704;5.146;2022-12-13T18:12:37;45.88;;;19.50;;
55483;SDS011;41345;51.704;5.146;2022-12-13T18:17:38;44.10;;;19.48;;
55483;SDS011;41345;51.704;5.146;2022-12-13T18:22:38;36.53;;;18.15;;
55483;SDS011;41345;51.704;5.146;2022-12-13T18:27:38;39.38;;;18.70;;
55483;SDS011;41345;51.704;5.146;2022-12-13T18:32:39;40.90;;;18.53;;
55483;SDS011;41345;51.704;5.146;2022-12-13T18:37:39;42.23;;;19.80;;
55483;SDS011;41345;51.704;5.146;2022-12-13T18:42:39;40.10;;;18.83;;
55483;SDS011;41345;51.704;5.146;2022-12-13T18:47:40;41.85;;;18.80;;
55483;SDS011;41345;51.704;5.146;2022-12-13T18:52:40;38.60;;;18.43;;
55483;SDS011;41345;51.704;5.146;2022-12-13T18:57:42;37.45;;;17.55;;
55483;SDS011;41345;51.704;5.146;2022-12-13T19:02:42;39.65;;;19.35;;
55483;SDS011;41345;51.704;5.146;2022-12-13T19:07:42;38.90;;;19.20;;
55483;SDS011;41345;51.704;5.146;2022-12-13T19:12:43;45.55;;;19.55;;
55483;SDS011;41345;51.704;5.146;2022-12-13T19:17:43;44.17;;;20.05;;
55483;SDS011;41345;51.704;5.146;2022-12-13T19:22:43;43.05;;;21.08;;
55483;SDS011;41345;51.704;5.146;2022-12-13T19:27:45;41.60;;;19.48;;
55483;SDS011;41345;51.704;5.146;2022-12-13T19:32:46;41.03;;;19.08;;
55483;SDS011;41345;51.704;5.146;2022-12-13T19:37:47;39.58;;;19.65;;
55483;SDS011;41345;51.704;5.146;2022-12-13T19:42:47;38.28;;;19.35;;
55483;SDS011;41345;51.704;5.146;2022-12-13T19:47:47;33.75;;;19.08;;
55483;SDS011;41345;51.704;5.146;2022-12-13T19:52:47;37.05;;;19.60;;
55483;SDS011;41345;51.704;5.146;2022-12-13T19:57:48;37.30;;;18.40;;
55483;SDS011;41345;51.704;5.146;2022-12-13T20:02:48;34.70;;;18.00;;
55483;SDS011;41345;51.704;5.146;2022-12-13T20:07:49;39.67;;;19.70;;
55483;SDS011;41345;51.704;5.146;2022-12-13T20:12:52;36.65;;;19.73;;
55483;SDS011;41345;51.704;5.146;2022-12-13T20:17:53;37.33;;;19.20;;
55483;SDS011;41345;51.704;5.146;2022-12-13T20:22:53;39.83;;;17.98;;
55483;SDS011;41345;51.704;5.146;2022-12-13T20:27:53;38.22;;;18.00;;
55483;SDS011;41345;51.704;5.146;2022-12-13T20:32:54;36.25;;;18.98;;
55483;SDS011;41345;51.704;5.146;2022-12-13T20:37:54;34.05;;;17.67;;
55483;SDS011;41345;51.704;5.146;2022-12-13T20:42:54;35.67;;;17.52;;
55483;SDS011;41345;51.704;5.146;2022-12-13T20:47:54;35.95;;;19.13;;
55483;SDS011;41345;51.704;5.146;2022-12-13T20:52:55;34.83;;;17.70;;
55483;SDS011;41345;51.704;5.146;2022-12-13T20:57:55;40.33;;;18.98;;
55483;SDS011;41345;51.704;5.146;2022-12-13T21:02:55;35.72;;;18.08;;
55483;SDS011;41345;51.704;5.146;2022-12-13T21:07:56;40.47;;;18.42;;
55483;SDS011;41345;51.704;5.146;2022-12-13T21:13:14;33.97;;;18.30;;
55483;SDS011;41345;51.704;5.146;2022-12-13T21:18:16;36.00;;;19.02;;
55483;SDS011;41345;51.704;5.146;2022-12-13T21:23:16;34.90;;;16.70;;
55483;SDS011;41345;51.704;5.146;2022-12-13T21:28:16;33.30;;;17.40;;
55483;SDS011;41345;51.704;5.146;2022-12-13T21:33:16;36.80;;;17.25;;
55483;SDS011;41345;51.704;5.146;2022-12-13T21:38:17;32.05;;;16.50;;
55483;SDS011;41345;51.704;5.146;2022-12-13T21:43:17;32.20;;;16.23;;
55483;SDS011;41345;51.704;5.146;2022-12-13T21:48:17;33.05;;;15.32;;
55483;SDS011;41345;51.704;5.146;2022-12-13T21:53:18;29.70;;;15.35;;
55483;SDS011;41345;51.704;5.146;2022-12-13T21:58:18;34.58;;;15.77;;
55483;SDS011;41345;51.704;5.146;2022-12-13T22:03:37;27.52;;;14.43;;
55483;SDS011;41345;51.704;5.146;2022-12-13T22:08:37;30.70;;;14.32;;
55483;SDS011;41345;51.704;5.146;2022-12-13T22:13:38;24.40;;;12.30;;
55483;SDS011;41345;51.704;5.146;2022-12-13T22:18:38;26.52;;;13.55;;
55483;SDS011;41345;51.704;5.146;2022-12-13T22:23:39;28.92;;;12.35;;
55483;SDS011;41345;51.704;5.146;2022-12-13T22:28:39;28.00;;;13.00;;
55483;SDS011;41345;51.704;5.146;2022-12-13T22:33:41;24.58;;;11.88;;
55483;SDS011;41345;51.704;5.146;2022-12-13T22:38:41;26.63;;;13.13;;
55483;SDS011;41345;51.704;5.146;2022-12-13T22:43:42;25.00;;;12.63;;
55483;SDS011;41345;51.704;5.146;2022-12-13T22:48:43;28.60;;;11.15;;
55483;SDS011;41345;51.704;5.146;2022-12-13T22:53:43;25.95;;;12.60;;
55483;SDS011;41345;51.704;5.146;2022-12-13T22:58:44;27.27;;;13.18;;
55483;SDS011;41345;51.704;5.146;2022-12-13T23:03:45;29.23;;;12.57;;
55483;SDS011;41345;51.704;5.146;2022-12-13T23:08:47;28.40;;;12.32;;
55483;SDS011;41345;51.704;5.146;2022-12-13T23:13:49;23.80;;;11.18;;
55483;SDS011;41345;51.704;5.146;2022-12-13T23:18:49;26.27;;;11.88;;
55483;SDS011;41345;51.704;5.146;2022-12-13T23:23:50;25.98;;;11.77;;
55483;SDS011;41345;51.704;5.146;2022-12-13T23:28:51;25.98;;;10.90;;
55483;SDS011;41345;51.704;5.146;2022-12-13T23:33:52;22.13;;;10.68;;
55483;SDS011;41345;51.704;5.146;2022-12-13T23:38:52;22.95;;;12.32;;
55483;SDS011;41345;51.704;5.146;2022-12-13T23:43:53;23.73;;;11.23;;
55483;SDS011;41345;51.704;5.146;2022-12-13T23:48:53;26.60;;;11.55;;
55483;SDS011;41345;51.704;5.146;2022-12-13T23:53:54;24.98;;;11.73;;
55483;SDS011;41345;51.704;5.146;2022-12-13T23:58:54;22.95;;;11.80;;
